Time;durP1;ratioP1;P1;durP2;ratioP2;P2;SDS_P1;SDS_P2;PMS_P1;PMS_P2;Temp;Humidity;BMP_temperature;BMP_pressure;BME280_temperature;BME280_humidity;BME280_pressure;Samples;Min_cycle;Max_cycle;Signal;HPM_P1;HPM_P2
2022/05/13 00:02:11;;;;;;;4.70;3.37;;;;;;;;;;4388471;32;20309;-56
2022/05/13 00:04:38;;;;;;;5.03;3.70;;;;;;;;;;4388519;32;20274;-55
2022/05/13 00:07:04;;;;;;;8.20;3.55;;;;;;;;;;4386250;32;20281;-53
2022/05/13 00:12:14;;;;;;;7.70;3.62;;;;;;;;;;4382748;32;20758;-55
2022/05/13 00:14:41;;;;;;;4.20;3.35;;;;;;;;;;4384673;32;20351;-55
2022/05/13 00:17:07;;;;;;;6.18;5.03;;;;;;;;;;4388209;32;20666;-54
2022/05/13 00:19:32;;;;;;;7.53;4.87;;;;;;;;;;4387936;32;20265;-57
2022/05/13 00:21:58;;;;;;;9.02;4.07;;;;;;;;;;4387998;32;20248;-55
2022/05/13 00:24:23;;;;;;;9.52;4.50;;;;;;;;;;4388450;32;20662;-56
2022/05/13 00:26:49;;;;;;;6.90;4.70;;;;;;;;;;4387695;32;20305;-56
2022/05/13 00:29:15;;;;;;;7.90;6.40;;;;;;;;;;4387980;32;20283;-54
2022/05/13 00:31:42;;;;;;;14.87;10.63;;;;;;;;;;4387732;32;20346;-55
2022/05/13 00:34:09;;;;;;;10.30;7.82;;;;;;;;;;4373726;32;20348;-55
2022/05/13 00:36:35;;;;;;;7.47;6.53;;;;;;;;;;4387410;32;20583;-55
2022/05/13 00:39:03;;;;;;;9.20;5.72;;;;;;;;;;4387705;32;20638;-55
2022/05/13 00:41:29;;;;;;;8.23;5.12;;;;;;;;;;4387927;32;20543;-55
2022/05/13 00:43:56;;;;;;;11.10;4.87;;;;;;;;;;4387661;32;20202;-55
2022/05/13 00:46:23;;;;;;;6.62;5.05;;;;;;;;;;4387752;32;20594;-54
2022/05/13 00:48:49;;;;;;;8.35;5.28;;;;;;;;;;4387681;32;20270;-54
2022/05/13 00:51:18;;;;;;;5.75;4.97;;;;;;;;;;4387781;32;20248;-53
2022/05/13 00:53:46;;;;;;;7.60;5.15;;;;;;;;;;4387720;32;20281;-54
2022/05/13 00:56:12;;;;;;;6.18;4.70;;;;;;;;;;4387483;32;20210;-54
2022/05/13 00:58:41;;;;;;;10.38;5.93;;;;;;;;;;4382052;32;20323;-55
2022/05/13 01:01:06;;;;;;;8.48;5.68;;;;;;;;;;4387405;32;20185;-54
2022/05/13 01:03:34;;;;;;;6.37;4.90;;;;;;;;;;4387336;32;20354;-56
2022/05/13 01:06:04;;;;;;;6.65;4.32;;;;;;;;;;4387435;32;20244;-54
2022/05/13 01:08:32;;;;;;;5.65;4.93;;;;;;;;;;4382187;32;20268;-54
2022/05/13 01:11:00;;;;;;;6.62;4.50;;;;;;;;;;4384049;32;20280;-54
2022/05/13 01:13:29;;;;;;;5.03;3.80;;;;;;;;;;4387586;32;20202;-54
2022/05/13 01:15:55;;;;;;;6.85;4.47;;;;;;;;;;4387471;32;20289;-54
2022/05/13 01:18:37;;;;;;;5.68;4.22;;;;;;;;;;4387308;32;20292;-54
2022/05/13 01:21:05;;;;;;;9.18;5.18;;;;;;;;;;4387285;32;20286;-54
2022/05/13 01:23:36;;;;;;;7.70;3.90;;;;;;;;;;4387211;32;20190;-54
2022/05/13 01:26:08;;;;;;;5.68;3.83;;;;;;;;;;4387157;32;20711;-54
2022/05/13 01:28:38;;;;;;;4.05;3.53;;;;;;;;;;4388547;32;20221;-54
2022/05/13 01:31:08;;;;;;;6.90;5.07;;;;;;;;;;4402314;32;20288;-54
2022/05/13 01:33:34;;;;;;;4.95;4.37;;;;;;;;;;4388214;32;20271;-54
2022/05/13 01:36:01;;;;;;;5.12;4.43;;;;;;;;;;4387003;32;20214;-54
2022/05/13 01:38:31;;;;;;;7.65;4.75;;;;;;;;;;4386991;32;20198;-54
2022/05/13 01:40:57;;;;;;;7.82;4.47;;;;;;;;;;4386826;32;20636;-54
2022/05/13 01:43:23;;;;;;;6.97;4.78;;;;;;;;;;4387122;32;20281;-56
2022/05/13 01:45:48;;;;;;;6.07;4.82;;;;;;;;;;4386942;32;20264;-54
2022/05/13 01:48:14;;;;;;;8.52;4.45;;;;;;;;;;4387078;32;20625;-55
2022/05/13 01:50:40;;;;;;;9.15;4.53;;;;;;;;;;4386852;32;20496;-54
2022/05/13 01:53:06;;;;;;;8.07;5.00;;;;;;;;;;4386965;32;20213;-54
2022/05/13 01:55:32;;;;;;;5.70;4.32;;;;;;;;;;4387038;32;20202;-54
2022/05/13 01:57:57;;;;;;;8.95;5.22;;;;;;;;;;4385200;32;20210;-54
2022/05/13 02:00:24;;;;;;;7.05;4.85;;;;;;;;;;4387090;32;20210;-54
2022/05/13 02:05:47;;;;;;;5.93;4.57;;;;;;;;;;4367956;32;20273;-55
2022/05/13 02:08:13;;;;;;;7.62;4.62;;;;;;;;;;4386904;32;20802;-54
2022/05/13 02:10:38;;;;;;;7.72;4.97;;;;;;;;;;4386444;32;20261;-53
2022/05/13 02:13:04;;;;;;;9.25;5.12;;;;;;;;;;4373767;32;20313;-54
2022/05/13 02:15:30;;;;;;;8.93;4.35;;;;;;;;;;4387184;32;20740;-54
2022/05/13 02:17:55;;;;;;;9.52;4.95;;;;;;;;;;4387107;32;20253;-54
2022/05/13 02:20:21;;;;;;;11.20;4.57;;;;;;;;;;4386812;32;20516;-54
2022/05/13 02:22:46;;;;;;;5.80;3.97;;;;;;;;;;4386914;32;20254;-54
2022/05/13 02:25:12;;;;;;;6.35;4.68;;;;;;;;;;4386737;32;20198;-54
2022/05/13 02:27:37;;;;;;;8.45;3.50;;;;;;;;;;4387131;32;20222;-54
2022/05/13 02:30:04;;;;;;;13.52;4.10;;;;;;;;;;4386872;32;20229;-54
2022/05/13 02:32:30;;;;;;;11.15;6.57;;;;;;;;;;4387681;32;20677;-55
2022/05/13 02:34:55;;;;;;;6.25;5.57;;;;;;;;;;4389573;32;20299;-54
2022/05/13 02:37:21;;;;;;;10.38;4.95;;;;;;;;;;4389512;32;20596;-54
2022/05/13 02:39:47;;;;;;;4.72;4.00;;;;;;;;;;4389360;32;20295;-54
2022/05/13 02:42:12;;;;;;;5.22;3.83;;;;;;;;;;4389728;32;20221;-54
2022/05/13 02:44:37;;;;;;;5.85;4.00;;;;;;;;;;4389254;32;20315;-54
2022/05/13 02:47:03;;;;;;;5.00;4.10;;;;;;;;;;4389653;32;20304;-54
2022/05/13 02:49:29;;;;;;;5.65;3.80;;;;;;;;;;4389333;32;20399;-55
2022/05/13 02:51:54;;;;;;;5.62;3.87;;;;;;;;;;4389134;32;20305;-54
2022/05/13 02:54:21;;;;;;;8.50;5.65;;;;;;;;;;4387497;32;20371;-54
2022/05/13 02:56:46;;;;;;;9.23;6.07;;;;;;;;;;4374226;32;20297;-54
2022/05/13 02:59:11;;;;;;;14.27;6.12;;;;;;;;;;4374097;32;20398;-54
2022/05/13 03:01:37;;;;;;;9.15;5.30;;;;;;;;;;4373805;32;20276;-54
2022/05/13 03:04:03;;;;;;;8.88;5.05;;;;;;;;;;4389140;32;20685;-55
2022/05/13 03:06:29;;;;;;;4.07;3.67;;;;;;;;;;4379418;32;20322;-55
2022/05/13 03:08:55;;;;;;;10.70;4.25;;;;;;;;;;4374043;32;20261;-55
2022/05/13 03:11:20;;;;;;;5.32;4.25;;;;;;;;;;4373973;32;20563;-54
2022/05/13 03:13:47;;;;;;;7.10;4.93;;;;;;;;;;4373789;32;20343;-55
2022/05/13 03:16:17;;;;;;;8.02;5.18;;;;;;;;;;4360754;32;20260;-55
2022/05/13 03:18:43;;;;;;;10.98;5.20;;;;;;;;;;4373945;32;20308;-55
2022/05/13 03:21:09;;;;;;;7.03;4.53;;;;;;;;;;4378786;32;20798;-54
2022/05/13 03:23:35;;;;;;;10.88;5.95;;;;;;;;;;4388712;32;20677;-54
2022/05/13 03:26:00;;;;;;;7.28;6.47;;;;;;;;;;4388525;32;20301;-54
2022/05/13 03:28:26;;;;;;;9.35;7.20;;;;;;;;;;4389013;32;20276;-55
2022/05/13 03:30:52;;;;;;;13.05;6.60;;;;;;;;;;4388570;32;20229;-55
2022/05/13 03:33:19;;;;;;;7.32;5.68;;;;;;;;;;4388452;32;20351;-56
2022/05/13 03:35:45;;;;;;;7.28;5.10;;;;;;;;;;4388435;32;20330;-55
2022/05/13 03:38:10;;;;;;;9.98;5.12;;;;;;;;;;4388539;32;20694;-55
2022/05/13 03:40:36;;;;;;;9.20;5.55;;;;;;;;;;4388544;32;20264;-55
2022/05/13 03:43:05;;;;;;;8.40;6.35;;;;;;;;;;4388320;32;20337;-55
2022/05/13 03:45:32;;;;;;;10.95;6.30;;;;;;;;;;4387796;32;20749;-55
2022/05/13 03:47:59;;;;;;;9.88;5.78;;;;;;;;;;4388321;32;20213;-55
2022/05/13 03:50:25;;;;;;;15.23;6.65;;;;;;;;;;4388438;32;20277;-55
2022/05/13 03:52:50;;;;;;;17.48;6.03;;;;;;;;;;4388287;32;20253;-56
2022/05/13 03:55:16;;;;;;;7.28;5.57;;;;;;;;;;4387951;32;20233;-55
2022/05/13 03:57:41;;;;;;;12.30;6.53;;;;;;;;;;4379844;32;20234;-55
2022/05/13 04:00:08;;;;;;;10.20;6.05;;;;;;;;;;4387258;32;20236;-55
2022/05/13 04:02:33;;;;;;;9.68;4.82;;;;;;;;;;4388124;32;20724;-54
2022/05/13 04:10:43;;;;;;;35.03;21.52;;;;;;;;;;4356176;32;20238;-54
2022/05/13 04:16:06;;;;;;;46.95;28.98;;;;;;;;;;4387899;32;20240;-54
2022/05/13 04:18:43;;;;;;;40.67;28.58;;;;;;;;;;4387799;32;20202;-54
2022/05/13 04:21:15;;;;;;;38.00;23.42;;;;;;;;;;4388285;32;20221;-54
2022/05/13 04:23:43;;;;;;;47.60;23.95;;;;;;;;;;4387881;32;20253;-54
2022/05/13 04:26:12;;;;;;;41.88;21.45;;;;;;;;;;4388214;32;20462;-56
2022/05/13 04:28:44;;;;;;;43.17;19.15;;;;;;;;;;4387752;32;20222;-54
2022/05/13 04:31:11;;;;;;;26.30;17.12;;;;;;;;;;4388242;32;20213;-55
2022/05/13 04:33:38;;;;;;;32.97;18.27;;;;;;;;;;4387741;32;20197;-55
2022/05/13 04:36:05;;;;;;;25.75;16.92;;;;;;;;;;4383224;32;20324;-55
2022/05/13 04:38:30;;;;;;;27.27;16.15;;;;;;;;;;4380591;32;20241;-56
2022/05/13 04:40:56;;;;;;;31.85;16.15;;;;;;;;;;4387248;32;20267;-55
2022/05/13 04:43:22;;;;;;;31.42;16.50;;;;;;;;;;4387677;32;20368;-56
2022/05/13 04:45:47;;;;;;;28.92;15.60;;;;;;;;;;4387466;32;20197;-55
2022/05/13 04:48:16;;;;;;;22.77;14.02;;;;;;;;;;4387346;32;20306;-55
2022/05/13 04:51:02;;;;;;;22.95;13.57;;;;;;;;;;4387099;32;20597;-54
2022/05/13 04:53:31;;;;;;;20.70;12.23;;;;;;;;;;4387055;32;20226;-54
2022/05/13 04:55:58;;;;;;;17.92;11.80;;;;;;;;;;4387120;32;20269;-54
2022/05/13 04:58:24;;;;;;;19.02;11.15;;;;;;;;;;4381940;32;20214;-54
2022/05/13 05:00:52;;;;;;;19.98;11.65;;;;;;;;;;4372067;32;20517;-55
2022/05/13 05:03:19;;;;;;;18.48;8.98;;;;;;;;;;4372148;32;20510;-55
2022/05/13 05:05:45;;;;;;;16.25;9.10;;;;;;;;;;4376702;32;20265;-55
2022/05/13 05:08:11;;;;;;;12.90;8.35;;;;;;;;;;4387406;32;20213;-54
2022/05/13 05:10:38;;;;;;;16.30;8.18;;;;;;;;;;4387060;32;20257;-54
2022/05/13 05:13:04;;;;;;;16.48;8.90;;;;;;;;;;4386534;32;20654;-54
2022/05/13 05:15:29;;;;;;;11.88;8.02;;;;;;;;;;4385357;32;20218;-54
2022/05/13 05:17:55;;;;;;;8.50;7.17;;;;;;;;;;4387211;32;20681;-54
2022/05/13 05:20:22;;;;;;;12.52;7.10;;;;;;;;;;4386877;32;20703;-54
2022/05/13 05:22:48;;;;;;;10.65;6.35;;;;;;;;;;4386639;32;20647;-54
2022/05/13 05:25:18;;;;;;;11.98;7.60;;;;;;;;;;4387367;32;20271;-54
2022/05/13 05:27:44;;;;;;;6.50;5.87;;;;;;;;;;4387244;32;20270;-54
2022/05/13 05:30:11;;;;;;;10.50;7.75;;;;;;;;;;4387126;32;20358;-54
2022/05/13 05:32:41;;;;;;;9.80;7.90;;;;;;;;;;4380649;32;20630;-54
2022/05/13 05:35:13;;;;;;;17.42;7.35;;;;;;;;;;4371890;32;20217;-54
2022/05/13 05:37:38;;;;;;;8.05;6.60;;;;;;;;;;4374740;32;20367;-54
2022/05/13 05:40:05;;;;;;;19.92;6.37;;;;;;;;;;4386701;32;20214;-54
2022/05/13 05:42:30;;;;;;;15.93;6.53;;;;;;;;;;4387206;32;20259;-54
2022/05/13 05:44:56;;;;;;;23.12;7.32;;;;;;;;;;4387040;32;20296;-54
2022/05/13 05:47:24;;;;;;;12.25;6.20;;;;;;;;;;4386716;32;20218;-54
2022/05/13 05:49:50;;;;;;;7.55;5.43;;;;;;;;;;4387130;32;20669;-53
2022/05/13 05:52:16;;;;;;;7.40;5.35;;;;;;;;;;4386904;32;20237;-54
2022/05/13 05:57:29;;;;;;;30.73;9.82;;;;;;;;;;4387241;32;20343;-53
2022/05/13 05:59:54;;;;;;;5.90;5.05;;;;;;;;;;4371873;32;20297;-54
2022/05/13 06:02:20;;;;;;;13.93;6.65;;;;;;;;;;4372125;32;20348;-53
2022/05/13 06:04:45;;;;;;;7.07;5.90;;;;;;;;;;4372150;32;20374;-55
2022/05/13 06:07:14;;;;;;;8.50;6.12;;;;;;;;;;4385962;32;20568;-55
2022/05/13 06:09:41;;;;;;;7.95;6.18;;;;;;;;;;4389638;32;20586;-54
2022/05/13 06:12:09;;;;;;;11.43;6.35;;;;;;;;;;4389804;32;20234;-54
2022/05/13 06:14:35;;;;;;;9.77;7.05;;;;;;;;;;4389921;32;20273;-54
2022/05/13 06:17:00;;;;;;;7.93;5.93;;;;;;;;;;4389762;32;20304;-54
2022/05/13 06:19:26;;;;;;;13.82;6.25;;;;;;;;;;4390208;32;20292;-55
2022/05/13 06:21:52;;;;;;;16.37;6.07;;;;;;;;;;4389466;32;20217;-55
2022/05/13 06:24:18;;;;;;;10.00;6.35;;;;;;;;;;4389792;32;20328;-55
2022/05/13 06:26:48;;;;;;;8.20;5.90;;;;;;;;;;4376058;32;20251;-53
2022/05/13 06:29:24;;;;;;;12.57;5.93;;;;;;;;;;4381009;32;20210;-54
2022/05/13 06:31:50;;;;;;;8.02;5.80;;;;;;;;;;4377147;32;20300;-55
2022/05/13 06:34:16;;;;;;;10.43;6.25;;;;;;;;;;4389311;32;20834;-54
2022/05/13 06:36:42;;;;;;;17.67;6.70;;;;;;;;;;4388763;32;20652;-53
2022/05/13 06:39:08;;;;;;;7.25;5.25;;;;;;;;;;4389091;32;20299;-55
2022/05/13 06:41:38;;;;;;;9.20;5.65;;;;;;;;;;4389428;32;20293;-54
2022/05/13 06:44:05;;;;;;;10.73;4.90;;;;;;;;;;4389537;32;20221;-54
2022/05/13 06:46:31;;;;;;;6.35;5.18;;;;;;;;;;4389173;32;20251;-56
2022/05/13 06:48:58;;;;;;;10.73;6.65;;;;;;;;;;4389496;32;20397;-56
2022/05/13 06:51:24;;;;;;;8.13;5.62;;;;;;;;;;4389445;32;20238;-55
2022/05/13 06:53:50;;;;;;;9.43;5.28;;;;;;;;;;4389105;32;20201;-55
2022/05/13 06:56:15;;;;;;;9.70;5.07;;;;;;;;;;4389447;32;20279;-55
2022/05/13 06:58:40;;;;;;;8.35;5.12;;;;;;;;;;4381912;32;20340;-55
2022/05/13 07:01:06;;;;;;;6.12;5.18;;;;;;;;;;4374204;32;20186;-55
2022/05/13 07:03:31;;;;;;;12.02;6.28;;;;;;;;;;4374359;32;20257;-55
2022/05/13 07:05:57;;;;;;;8.55;6.55;;;;;;;;;;4376928;32;20232;-55
2022/05/13 07:08:22;;;;;;;7.87;5.95;;;;;;;;;;4389201;32;20295;-55
2022/05/13 07:10:48;;;;;;;7.93;6.30;;;;;;;;;;4388700;32;20228;-55
2022/05/13 07:13:15;;;;;;;5.68;4.82;;;;;;;;;;4388682;32;20510;-54
2022/05/13 07:15:43;;;;;;;8.93;5.40;;;;;;;;;;4387696;32;20704;-54
2022/05/13 07:18:09;;;;;;;16.20;6.53;;;;;;;;;;4388421;32;20256;-55
2022/05/13 07:20:35;;;;;;;13.70;7.82;;;;;;;;;;4388417;32;20649;-55
2022/05/13 07:23:01;;;;;;;11.68;6.55;;;;;;;;;;4389011;32;20336;-54
2022/05/13 07:25:26;;;;;;;5.62;4.82;;;;;;;;;;4380046;32;20232;-55
2022/05/13 07:27:52;;;;;;;10.60;6.95;;;;;;;;;;4374426;32;20283;-56
2022/05/13 07:30:18;;;;;;;7.35;5.07;;;;;;;;;;4389559;32;20259;-55
2022/05/13 07:32:44;;;;;;;12.98;5.22;;;;;;;;;;4389191;32;20229;-54
2022/05/13 07:35:09;;;;;;;10.40;5.07;;;;;;;;;;4388424;32;20572;-55
2022/05/13 07:37:36;;;;;;;11.12;5.97;;;;;;;;;;4388159;32;20615;-55
2022/05/13 07:42:47;;;;;;;10.68;5.65;;;;;;;;;;4388323;32;20232;-55
2022/05/13 07:45:13;;;;;;;7.20;5.00;;;;;;;;;;4388200;32;20567;-54
2022/05/13 07:47:40;;;;;;;7.85;5.20;;;;;;;;;;4388160;32;20281;-54
2022/05/13 07:50:07;;;;;;;12.02;5.57;;;;;;;;;;4388154;32;20314;-55
2022/05/13 07:52:33;;;;;;;10.95;4.18;;;;;;;;;;4388167;32;20300;-55
2022/05/13 07:54:58;;;;;;;6.65;5.03;;;;;;;;;;4387372;32;20276;-54
2022/05/13 07:57:24;;;;;;;4.70;3.83;;;;;;;;;;4388035;32;20313;-54
2022/05/13 08:02:33;;;;;;;9.35;4.93;;;;;;;;;;4381516;32;20275;-55
2022/05/13 08:04:59;;;;;;;6.78;5.12;;;;;;;;;;4402443;32;20272;-54
2022/05/13 08:07:24;;;;;;;7.05;5.15;;;;;;;;;;4388247;32;20316;-54
2022/05/13 08:09:50;;;;;;;6.40;4.72;;;;;;;;;;4386058;32;20268;-54
2022/05/13 08:12:15;;;;;;;6.68;4.90;;;;;;;;;;4387555;32;20252;-55
2022/05/13 08:14:41;;;;;;;9.38;4.80;;;;;;;;;;4387367;32;20625;-54
2022/05/13 08:17:06;;;;;;;17.15;4.62;;;;;;;;;;4387624;32;20230;-54
2022/05/13 08:19:32;;;;;;;12.20;4.60;;;;;;;;;;4373832;32;20358;-55
2022/05/13 08:21:57;;;;;;;7.50;4.70;;;;;;;;;;4377495;32;20226;-54
2022/05/13 08:24:22;;;;;;;10.50;4.87;;;;;;;;;;4375331;32;20612;-53
2022/05/13 08:26:48;;;;;;;11.43;4.75;;;;;;;;;;4383584;32;21186;-54
2022/05/13 08:29:13;;;;;;;6.68;3.85;;;;;;;;;;4388986;32;20339;-54
2022/05/13 08:31:39;;;;;;;8.20;4.35;;;;;;;;;;4385805;32;20398;-54
2022/05/13 08:34:04;;;;;;;12.68;4.43;;;;;;;;;;4371627;32;20300;-55
2022/05/13 08:36:30;;;;;;;7.72;4.22;;;;;;;;;;4371632;32;20376;-54
2022/05/13 08:38:55;;;;;;;8.93;5.85;;;;;;;;;;4382894;32;20303;-55
2022/05/13 08:41:34;;;;;;;8.70;5.05;;;;;;;;;;4387306;32;20253;-55
2022/05/13 08:44:04;;;;;;;5.75;4.22;;;;;;;;;;4389227;32;20228;-62
2022/05/13 08:46:40;;;;;;;9.73;4.87;;;;;;;;;;4388890;32;20318;-56
2022/05/13 08:49:26;;;;;;;6.20;4.75;;;;;;;;;;4387889;32;20198;-56
2022/05/13 08:55:10;;;;;;;10.30;4.90;;;;;;;;;;4385835;32;20328;-54
2022/05/13 08:57:41;;;;;;;4.70;3.80;;;;;;;;;;4387585;32;20237;-54
2022/05/13 09:00:11;;;;;;;9.85;4.55;;;;;;;;;;4399585;32;20583;-54
2022/05/13 09:02:41;;;;;;;9.27;4.25;;;;;;;;;;4389945;32;20271;-54
2022/05/13 09:05:26;;;;;;;15.02;4.97;;;;;;;;;;4401240;32;20201;-54
2022/05/13 09:07:52;;;;;;;6.12;3.90;;;;;;;;;;4372318;32;20617;-55
2022/05/13 09:10:18;;;;;;;8.13;4.72;;;;;;;;;;4372858;32;20238;-55
2022/05/13 09:13:12;;;;;;;8.05;3.62;;;;;;;;;;4381539;32;20766;-55
2022/05/13 09:15:44;;;;;;;5.53;4.47;;;;;;;;;;4386935;32;20217;-55
2022/05/13 09:18:35;;;;;;;6.85;3.33;;;;;;;;;;4377125;32;20241;-55
2022/05/13 09:21:10;;;;;;;8.57;4.00;;;;;;;;;;4376710;32;20214;-53
2022/05/13 09:23:36;;;;;;;7.93;3.42;;;;;;;;;;4387321;32;20193;-54
2022/05/13 09:26:22;;;;;;;4.75;3.60;;;;;;;;;;4386660;32;20342;-55
2022/05/13 09:29:00;;;;;;;7.55;4.12;;;;;;;;;;4386843;32;20193;-55
2022/05/13 09:31:31;;;;;;;11.27;3.45;;;;;;;;;;4373084;32;20238;-55
2022/05/13 09:33:56;;;;;;;4.85;3.35;;;;;;;;;;4386869;32;20645;-53
2022/05/13 09:36:22;;;;;;;7.90;3.10;;;;;;;;;;4387144;32;20256;-55
2022/05/13 09:38:50;;;;;;;8.73;3.10;;;;;;;;;;4387517;32;20348;-55
2022/05/13 09:41:35;;;;;;;5.85;2.87;;;;;;;;;;4387912;32;20740;-55
2022/05/13 09:44:27;;;;;;;5.12;2.92;;;;;;;;;;4390251;32;20210;-55
2022/05/13 09:47:16;;;;;;;4.47;2.65;;;;;;;;;;4390393;32;20255;-55
2022/05/13 09:49:46;;;;;;;5.65;3.40;;;;;;;;;;4389831;32;20186;-55
2022/05/13 09:52:17;;;;;;;3.87;2.85;;;;;;;;;;4389976;32;20242;-55
2022/05/13 09:54:46;;;;;;;5.30;3.15;;;;;;;;;;4387817;32;20252;-55
2022/05/13 09:57:30;;;;;;;9.35;2.55;;;;;;;;;;4389347;32;20232;-54
2022/05/13 10:00:02;;;;;;;2.50;1.67;;;;;;;;;;4384748;32;20238;-55
2022/05/13 10:02:37;;;;;;;4.80;2.97;;;;;;;;;;4389515;32;20620;-55
2022/05/13 10:05:25;;;;;;;5.37;2.33;;;;;;;;;;4402161;32;20235;-55
2022/05/13 10:07:53;;;;;;;4.32;2.72;;;;;;;;;;4396779;32;20267;-54
2022/05/13 10:16:06;;;;;;;4.12;2.78;;;;;;;;;;4387574;32;20357;-54
2022/05/13 10:18:39;;;;;;;3.00;2.22;;;;;;;;;;4391401;32;20284;-55
2022/05/13 10:21:13;;;;;;;7.35;2.58;;;;;;;;;;4389458;32;20289;-54
2022/05/13 10:23:44;;;;;;;6.85;2.67;;;;;;;;;;4388078;32;20431;-54
2022/05/13 10:26:15;;;;;;;4.18;2.20;;;;;;;;;;4388655;32;20221;-55
2022/05/13 10:28:47;;;;;;;9.30;2.58;;;;;;;;;;4389194;32;20300;-54
2022/05/13 10:31:20;;;;;;;6.95;2.95;;;;;;;;;;4389469;32;20225;-53
2022/05/13 10:34:03;;;;;;;5.07;2.80;;;;;;;;;;4389003;32;20286;-53
2022/05/13 10:36:50;;;;;;;3.95;2.67;;;;;;;;;;4389264;32;20284;-53
2022/05/13 10:39:25;;;;;;;4.10;2.50;;;;;;;;;;4389442;32;20336;-55
2022/05/13 10:41:57;;;;;;;3.95;2.62;;;;;;;;;;4375999;32;20718;-54
2022/05/13 10:44:23;;;;;;;6.65;2.40;;;;;;;;;;4389173;32;20535;-54
2022/05/13 10:46:56;;;;;;;4.50;2.55;;;;;;;;;;4388962;32;20396;-55
2022/05/13 10:49:26;;;;;;;5.05;2.50;;;;;;;;;;4389743;32;20354;-56
2022/05/13 10:52:10;;;;;;;3.75;2.37;;;;;;;;;;4389699;32;20272;-56
2022/05/13 10:54:36;;;;;;;3.67;2.03;;;;;;;;;;4376571;32;20214;-56
2022/05/13 10:57:12;;;;;;;6.60;2.47;;;;;;;;;;4374387;32;20309;-56
2022/05/13 10:59:39;;;;;;;3.90;1.90;;;;;;;;;;4382091;32;20251;-55
2022/05/13 11:02:04;;;;;;;3.35;2.12;;;;;;;;;;4389365;32;20296;-55
2022/05/13 11:04:42;;;;;;;8.15;1.80;;;;;;;;;;4389303;32;20630;-55
2022/05/13 11:07:07;;;;;;;3.35;2.28;;;;;;;;;;4387156;32;20241;-54
2022/05/13 11:10:10;;;;;;;5.18;1.90;;;;;;;;;;4389202;32;20315;-55
2022/05/13 11:13:01;;;;;;;7.90;2.75;;;;;;;;;;4388023;32;20233;-54
2022/05/13 11:15:45;;;;;;;3.17;1.83;;;;;;;;;;4388077;32;20242;-54
2022/05/13 11:18:22;;;;;;;4.87;2.65;;;;;;;;;;4388783;32;20326;-54
2022/05/13 11:20:56;;;;;;;3.97;2.15;;;;;;;;;;4388981;32;20213;-53
2022/05/13 11:27:04;;;;;;;3.15;2.03;;;;;;;;;;4389317;32;20272;-54
2022/05/13 11:29:39;;;;;;;2.67;2.15;;;;;;;;;;4389012;32;20277;-54
2022/05/13 11:32:21;;;;;;;5.50;2.70;;;;;;;;;;4388743;32;20319;-53
2022/05/13 11:35:10;;;;;;;3.00;2.00;;;;;;;;;;4403169;32;20213;-54
2022/05/13 11:37:39;;;;;;;1.80;1.60;;;;;;;;;;4367921;32;20275;-55
2022/05/13 11:40:35;;;;;;;2.50;1.60;;;;;;;;;;4388724;32;20361;-53
2022/05/13 11:43:38;;;;;;;3.65;1.80;;;;;;;;;;4389154;32;20218;-54
2022/05/13 11:46:29;;;;;;;2.72;1.90;;;;;;;;;;4388750;32;20349;-54
2022/05/13 11:49:08;;;;;;;3.37;2.10;;;;;;;;;;4386279;32;20346;-55
2022/05/13 11:51:35;;;;;;;2.95;2.00;;;;;;;;;;4388504;32;20625;-55
2022/05/13 11:54:00;;;;;;;4.78;1.90;;;;;;;;;;4388881;32;20239;-55
2022/05/13 11:56:26;;;;;;;4.45;1.98;;;;;;;;;;4388335;32;20598;-55
2022/05/13 11:58:55;;;;;;;2.83;2.10;;;;;;;;;;4380018;32;20689;-54
2022/05/13 12:01:39;;;;;;;6.25;2.30;;;;;;;;;;4382871;32;20242;-55
2022/05/13 12:04:13;;;;;;;5.45;1.90;;;;;;;;;;4388352;32;20739;-55
2022/05/13 12:06:50;;;;;;;3.95;2.42;;;;;;;;;;4380729;32;20593;-55
2022/05/13 12:09:21;;;;;;;4.03;1.83;;;;;;;;;;4387858;32;20297;-55
2022/05/13 12:11:56;;;;;;;2.97;1.77;;;;;;;;;;4388150;32;20226;-54
2022/05/13 12:14:32;;;;;;;8.13;2.42;;;;;;;;;;4388088;32;20641;-54
2022/05/13 12:17:28;;;;;;;3.22;1.90;;;;;;;;;;4387790;32;20221;-55
2022/05/13 12:20:05;;;;;;;3.10;2.28;;;;;;;;;;4388241;32;20255;-55
2022/05/13 12:22:31;;;;;;;2.42;1.85;;;;;;;;;;4387844;32;20286;-55
2022/05/13 12:25:01;;;;;;;4.20;2.25;;;;;;;;;;4387940;32;20300;-55
2022/05/13 12:27:31;;;;;;;6.12;2.20;;;;;;;;;;4388333;32;20252;-55
2022/05/13 12:30:11;;;;;;;3.67;2.80;;;;;;;;;;4388100;32;20321;-55
2022/05/13 12:32:42;;;;;;;3.20;2.17;;;;;;;;;;4387943;32;20234;-55
2022/05/13 12:38:08;;;;;;;2.55;1.92;;;;;;;;;;4387705;32;20294;-55
2022/05/13 12:40:50;;;;;;;7.93;3.65;;;;;;;;;;4388401;32;20256;-55
2022/05/13 12:43:20;;;;;;;2.45;1.60;;;;;;;;;;4388228;32;20214;-55
2022/05/13 12:46:12;;;;;;;1.60;1.25;;;;;;;;;;4383924;32;20314;-55
2022/05/13 12:49:09;;;;;;;3.12;1.58;;;;;;;;;;4372909;32;20615;-55
2022/05/13 12:51:51;;;;;;;3.53;2.15;;;;;;;;;;4373119;32;20314;-54
2022/05/13 12:54:23;;;;;;;2.45;1.30;;;;;;;;;;4373067;32;20194;-53
2022/05/13 12:56:59;;;;;;;2.20;1.37;;;;;;;;;;4373417;32;20214;-53
2022/05/13 12:59:33;;;;;;;2.20;1.52;;;;;;;;;;4372399;32;20277;-53
2022/05/13 13:02:03;;;;;;;2.22;1.40;;;;;;;;;;4386469;32;20244;-53
2022/05/13 13:04:32;;;;;;;3.65;1.62;;;;;;;;;;4387692;32;20638;-54
2022/05/13 13:07:09;;;;;;;3.10;1.52;;;;;;;;;;4387471;32;20370;-54
2022/05/13 13:09:41;;;;;;;5.50;1.83;;;;;;;;;;4388387;32;20712;-53
2022/05/13 13:12:37;;;;;;;3.40;1.55;;;;;;;;;;4372826;32;20222;-54
2022/05/13 13:15:20;;;;;;;3.53;1.92;;;;;;;;;;4386366;32;20974;-54
2022/05/13 13:17:52;;;;;;;6.57;1.60;;;;;;;;;;4387875;32;20205;-54
2022/05/13 13:20:20;;;;;;;3.28;2.08;;;;;;;;;;4387779;32;20194;-54
2022/05/13 13:22:52;;;;;;;5.43;1.77;;;;;;;;;;4387579;32;20273;-54
2022/05/13 13:25:27;;;;;;;2.20;1.50;;;;;;;;;;4387636;32;20559;-54
2022/05/13 13:28:01;;;;;;;4.07;1.87;;;;;;;;;;4373605;32;20240;-54
2022/05/13 13:30:28;;;;;;;2.95;1.50;;;;;;;;;;4387892;32;20186;-54
2022/05/13 13:32:54;;;;;;;4.22;2.17;;;;;;;;;;4388117;32;20222;-54
2022/05/13 13:35:35;;;;;;;2.62;1.60;;;;;;;;;;4387859;32;20213;-55
2022/05/13 13:38:04;;;;;;;2.50;1.40;;;;;;;;;;4388164;32;20220;-55
2022/05/13 13:40:35;;;;;;;6.40;1.90;;;;;;;;;;4385896;32;20263;-55
2022/05/13 13:43:20;;;;;;;5.62;1.77;;;;;;;;;;4377697;32;20207;-56
2022/05/13 13:46:19;;;;;;;3.37;1.10;;;;;;;;;;4372048;32;20199;-55
2022/05/13 13:48:49;;;;;;;4.70;2.10;;;;;;;;;;4366087;32;20254;-55
2022/05/13 13:51:25;;;;;;;2.62;1.30;;;;;;;;;;4372710;32;20215;-55
2022/05/13 13:54:05;;;;;;;2.42;1.27;;;;;;;;;;4372963;32;20191;-55
2022/05/13 13:56:33;;;;;;;4.82;1.77;;;;;;;;;;4372826;32;20218;-55
2022/05/13 13:59:21;;;;;;;3.28;1.60;;;;;;;;;;4372672;32;20195;-55
2022/05/13 14:01:49;;;;;;;2.72;1.65;;;;;;;;;;4384914;32;20240;-55
2022/05/13 14:04:20;;;;;;;6.60;2.03;;;;;;;;;;4387674;32;20762;-56
2022/05/13 14:06:48;;;;;;;4.35;1.85;;;;;;;;;;4381240;32;20403;-55
2022/05/13 14:09:27;;;;;;;2.85;2.25;;;;;;;;;;4386842;32;20265;-55
2022/05/13 14:11:54;;;;;;;6.32;2.30;;;;;;;;;;4387334;32;20221;-55
2022/05/13 14:14:21;;;;;;;3.92;2.40;;;;;;;;;;4387235;32;20618;-55
2022/05/13 14:16:58;;;;;;;4.20;2.22;;;;;;;;;;4386595;32;20241;-54
2022/05/13 14:19:26;;;;;;;3.75;1.85;;;;;;;;;;4386804;32;20610;-55
2022/05/13 14:21:57;;;;;;;2.62;1.70;;;;;;;;;;4386480;32;20248;-55
2022/05/13 14:24:39;;;;;;;2.03;1.48;;;;;;;;;;4386875;32;20265;-55
2022/05/13 14:27:34;;;;;;;3.20;1.75;;;;;;;;;;4387508;32;20293;-55
2022/05/13 14:30:10;;;;;;;5.00;1.60;;;;;;;;;;4387160;32;20217;-55
2022/05/13 14:32:39;;;;;;;5.12;2.15;;;;;;;;;;4390004;32;20315;-55
2022/05/13 14:35:12;;;;;;;7.37;2.03;;;;;;;;;;4389858;32;20702;-55
2022/05/13 14:37:48;;;;;;;4.62;2.78;;;;;;;;;;4387978;32;20253;-55
2022/05/13 14:40:17;;;;;;;3.47;1.58;;;;;;;;;;4374881;32;20707;-55
2022/05/13 14:42:47;;;;;;;3.10;1.75;;;;;;;;;;4374916;32;20244;-54
2022/05/13 14:45:43;;;;;;;1.85;1.58;;;;;;;;;;4374189;32;20229;-55
2022/05/13 14:48:37;;;;;;;2.97;1.55;;;;;;;;;;4371867;32;20328;-55
2022/05/13 14:51:23;;;;;;;3.35;1.83;;;;;;;;;;4373045;32;20607;-55
2022/05/13 14:54:02;;;;;;;7.90;2.53;;;;;;;;;;4374881;32;20320;-55
2022/05/13 14:56:45;;;;;;;1.87;1.37;;;;;;;;;;4375003;32;20275;-55
2022/05/13 14:59:18;;;;;;;3.85;2.03;;;;;;;;;;4384025;32;20733;-55
2022/05/13 15:01:44;;;;;;;8.88;2.15;;;;;;;;;;4389327;32;20282;-55
2022/05/13 15:04:15;;;;;;;1.95;1.62;;;;;;;;;;4389541;32;20277;-55
2022/05/13 15:06:47;;;;;;;2.53;1.60;;;;;;;;;;4387626;32;20243;-55
2022/05/13 15:09:25;;;;;;;3.35;1.95;;;;;;;;;;4389999;32;20571;-55
2022/05/13 15:11:57;;;;;;;4.07;1.87;;;;;;;;;;4389498;32;20247;-55
2022/05/13 15:14:24;;;;;;;3.22;1.60;;;;;;;;;;4389276;32;20214;-55
2022/05/13 15:16:49;;;;;;;3.65;2.58;;;;;;;;;;4389163;32;20320;-55
2022/05/13 15:19:28;;;;;;;2.78;1.90;;;;;;;;;;4375277;32;20301;-57
2022/05/13 15:21:56;;;;;;;5.18;1.95;;;;;;;;;;4389354;32;20657;-55
2022/05/13 15:24:23;;;;;;;4.95;2.03;;;;;;;;;;4389684;32;20260;-54
2022/05/13 15:26:49;;;;;;;5.57;3.80;;;;;;;;;;4389473;32;20289;-55
2022/05/13 15:29:15;;;;;;;3.95;2.00;;;;;;;;;;4389649;32;20340;-55
2022/05/13 15:31:40;;;;;;;2.95;1.87;;;;;;;;;;4375382;32;20237;-54
2022/05/13 15:34:06;;;;;;;7.62;2.50;;;;;;;;;;4374109;32;20814;-54
2022/05/13 15:36:32;;;;;;;7.65;2.62;;;;;;;;;;4374114;32;20265;-54